Time;durP1;ratioP1;P1;durP2;ratioP2;P2;SDS_P1;SDS_P2;PMS_P1;PMS_P2;Temp;Humidity;BMP_temperature;BMP_pressure;BME280_temperature;BME280_humidity;BME280_pressure;Samples;Min_cycle;Max_cycle;Signal;HPM_P1;HPM_P2
2022/08/31 00:05:26;;;;;;;2.70;0.90;;;18.90;54.40;;;;;;5062920;28;20246;-76
2022/08/31 00:07:54;;;;;;;2.40;0.80;;;19.00;53.00;;;;;;5062805;28;20261;-77
2022/08/31 00:10:26;;;;;;;2.37;0.87;;;19.20;53.70;;;;;;5062329;28;20341;-74
2022/08/31 00:12:58;;;;;;;2.27;0.80;;;19.30;53.00;;;;;;5063394;28;20180;-79
2022/08/31 00:15:26;;;;;;;6.60;0.80;;;19.20;53.70;;;;;;5055325;28;20262;-77
2022/08/31 00:17:57;;;;;;;4.93;0.80;;;19.10;54.00;;;;;;5058106;28;20183;-78
2022/08/31 00:20:26;;;;;;;3.13;2.70;;;19.40;53.10;;;;;;5055500;28;20270;-74
2022/08/31 00:22:53;;;;;;;1.53;0.80;;;19.60;53.00;;;;;;5059434;28;20172;-76
2022/08/31 00:25:22;;;;;;;3.13;0.80;;;19.60;52.50;;;;;;5055294;28;20222;-77
2022/08/31 00:27:54;;;;;;;2.77;0.70;;;19.70;52.90;;;;;;5058438;28;20180;-77
2022/08/31 00:30:22;;;;;;;2.20;0.90;;;19.60;53.40;;;;;;5062806;28;20613;-75
2022/08/31 00:32:49;;;;;;;2.00;0.67;;;19.60;53.00;;;;;;5052916;28;20233;-74
2022/08/31 00:35:17;;;;;;;1.33;0.50;;;19.60;52.70;;;;;;5053495;28;20181;-74
2022/08/31 00:37:51;;;;;;;4.97;1.07;;;19.60;52.60;;;;;;5052833;28;20172;-77
2022/08/31 00:40:19;;;;;;;1.83;1.00;;;19.70;53.80;;;;;;5051460;28;20730;-77
2022/08/31 00:42:50;;;;;;;4.47;0.70;;;19.80;54.00;;;;;;5052688;28;20262;-75
2022/08/31 00:45:20;;;;;;;3.33;0.93;;;19.70;53.60;;;;;;5052735;28;20204;-77
2022/08/31 00:47:48;;;;;;;2.57;0.87;;;19.80;53.20;;;;;;5057953;28;20176;-75
2022/08/31 00:50:17;;;;;;;3.97;0.97;;;19.80;53.70;;;;;;5052910;28;20176;-77
2022/08/31 00:52:51;;;;;;;2.47;0.73;;;20.00;53.60;;;;;;5066502;28;20563;-78
2022/08/31 00:55:34;;;;;;;2.20;0.90;;;20.00;53.10;;;;;;5073171;28;20676;-79
2022/08/31 00:58:21;;;;;;;2.63;0.70;;;20.20;53.10;;;;;;5079034;28;20184;-76
2022/08/31 01:00:50;;;;;;;2.07;0.87;;;20.20;52.50;;;;;;5060995;28;20188;-74
2022/08/31 01:03:19;;;;;;;3.80;0.90;;;20.10;53.00;;;;;;5055317;28;20167;-76
2022/08/31 01:05:46;;;;;;;1.50;0.70;;;19.90;53.70;;;;;;5074135;28;20189;-77
2022/08/31 01:08:14;;;;;;;1.37;0.63;;;20.00;53.50;;;;;;5074611;28;20176;-74
2022/08/31 01:10:44;;;;;;;5.00;0.90;;;20.10;53.50;;;;;;5074157;28;20172;-76
2022/08/31 01:13:13;;;;;;;3.57;1.00;;;20.20;53.40;;;;;;5065388;28;20221;-75
2022/08/31 01:15:47;;;;;;;4.07;1.00;;;20.30;52.90;;;;;;5062931;28;20202;-76
2022/08/31 01:18:16;;;;;;;3.80;0.90;;;20.30;53.80;;;;;;5052224;28;20253;-76
2022/08/31 01:20:58;;;;;;;2.17;0.70;;;20.10;53.70;;;;;;5052158;28;20207;-76
2022/08/31 01:23:37;;;;;;;6.40;0.97;;;20.10;54.10;;;;;;5084629;28;20198;-77
2022/08/31 01:26:07;;;;;;;4.13;1.20;;;20.50;53.60;;;;;;5059866;28;20190;-77
2022/08/31 01:28:35;;;;;;;4.10;1.10;;;20.80;53.60;;;;;;5071062;28;20187;-74
2022/08/31 01:31:07;;;;;;;4.50;0.97;;;20.80;53.00;;;;;;5052681;28;20184;-75
2022/08/31 01:33:37;;;;;;;3.77;1.00;;;20.90;52.50;;;;;;5090214;28;20258;-76
2022/08/31 01:36:07;;;;;;;3.43;1.10;;;20.60;53.50;;;;;;5064778;28;20251;-75
2022/08/31 01:38:35;;;;;;;1.87;0.90;;;20.50;53.90;;;;;;5059854;28;20192;-75
2022/08/31 01:41:04;;;;;;;9.10;1.27;;;20.00;55.20;;;;;;5051838;28;20235;-72
2022/08/31 01:43:33;;;;;;;1.97;0.87;;;20.10;56.00;;;;;;5054289;28;20235;-76
2022/08/31 01:46:08;;;;;;;2.93;0.70;;;20.20;56.20;;;;;;5055407;28;20180;-75
2022/08/31 01:48:36;;;;;;;5.63;0.80;;;20.10;56.20;;;;;;5064893;28;20236;-75
2022/08/31 01:51:05;;;;;;;2.00;0.90;;;20.00;57.00;;;;;;5075992;28;20244;-76
2022/08/31 01:53:33;;;;;;;4.63;1.03;;;20.00;57.40;;;;;;5056648;28;20184;-75
2022/08/31 01:56:01;;;;;;;4.17;0.90;;;20.40;57.20;;;;;;5060742;28;20195;-76
2022/08/31 01:58:28;;;;;;;3.60;1.10;;;21.00;55.60;;;;;;5056523;28;20183;-72
2022/08/31 02:00:57;;;;;;;5.00;0.93;;;21.50;53.70;;;;;;5066326;28;20175;-72
2022/08/31 02:03:24;;;;;;;5.83;1.20;;;21.80;53.00;;;;;;5074383;28;20175;-74
2022/08/31 02:05:51;;;;;;;4.73;0.90;;;22.00;53.40;;;;;;5059133;28;20188;-77
2022/08/31 02:08:19;;;;;;;2.80;1.17;;;21.60;53.70;;;;;;5065022;28;20180;-73
2022/08/31 02:10:46;;;;;;;2.60;1.27;;;21.00;54.80;;;;;;5055710;28;20676;-75
2022/08/31 02:13:14;;;;;;;4.00;1.10;;;21.20;55.40;;;;;;5058387;28;20183;-74
2022/08/31 02:15:41;;;;;;;2.47;1.00;;;21.20;55.40;;;;;;5061848;28;20176;-75
2022/08/31 02:18:08;;;;;;;3.20;1.03;;;20.90;56.10;;;;;;5055727;28;20172;-75
2022/08/31 02:20:36;;;;;;;7.20;1.50;;;21.10;56.10;;;;;;5054812;28;20275;-76
2022/08/31 02:23:03;;;;;;;2.80;1.20;;;20.70;57.00;;;;;;5072951;28;20183;-75
2022/08/31 02:25:32;;;;;;;7.27;1.33;;;20.40;58.50;;;;;;5060640;28;20233;-75
2022/08/31 02:27:59;;;;;;;2.87;1.50;;;20.20;59.10;;;;;;5078247;28;20568;-75
2022/08/31 02:30:26;;;;;;;5.67;1.73;;;20.40;59.40;;;;;;5056789;28;20242;-77
2022/08/31 02:32:54;;;;;;;5.30;1.60;;;20.50;59.30;;;;;;5072233;28;20193;-76
2022/08/31 02:35:21;;;;;;;10.13;1.97;;;20.50;61.00;;;;;;5064097;28;20171;-75
2022/08/31 02:37:49;;;;;;;7.40;1.77;;;20.80;61.10;;;;;;5060833;28;20198;-76
2022/08/31 02:40:16;;;;;;;10.63;1.87;;;20.40;61.90;;;;;;5069856;28;20231;-78
2022/08/31 02:42:43;;;;;;;10.10;2.50;;;20.30;62.90;;;;;;5054886;28;20187;-77
2022/08/31 02:45:11;;;;;;;12.97;3.33;;;20.70;63.30;;;;;;5054782;28;20251;-75
2022/08/31 02:47:38;;;;;;;18.70;4.23;;;20.60;64.00;;;;;;5055061;28;20176;-76
2022/08/31 02:50:07;;;;;;;7.53;2.10;;;20.60;64.10;;;;;;5055059;28;20262;-75
2022/08/31 02:52:35;;;;;;;5.77;2.23;;;20.80;63.10;;;;;;5054693;28;20191;-75
2022/08/31 02:55:03;;;;;;;8.30;2.33;;;20.50;62.80;;;;;;5054091;28;20199;-75
2022/08/31 02:57:30;;;;;;;15.07;2.33;;;20.00;64.80;;;;;;5070439;28;20554;-76
2022/08/31 02:59:58;;;;;;;7.50;2.00;;;20.60;62.30;;;;;;5065702;28;20195;-77
2022/08/31 03:02:25;;;;;;;9.90;2.03;;;20.90;60.30;;;;;;5054672;28;20180;-75
2022/08/31 03:04:53;;;;;;;10.33;2.40;;;20.70;61.20;;;;;;5057238;28;20250;-75
2022/08/31 03:07:20;;;;;;;8.17;1.80;;;20.80;60.70;;;;;;5054542;28;20190;-75
2022/08/31 03:09:47;;;;;;;6.27;2.40;;;21.30;59.20;;;;;;5060454;28;20187;-74
2022/08/31 03:12:15;;;;;;;8.33;2.60;;;21.40;58.30;;;;;;5066716;28;20184;-75
2022/08/31 03:14:42;;;;;;;7.53;2.13;;;21.10;59.50;;;;;;5076311;28;20287;-74
2022/08/31 03:17:10;;;;;;;8.23;2.30;;;20.90;59.90;;;;;;5053958;28;20187;-75
2022/08/31 03:19:37;;;;;;;13.00;2.33;;;20.30;62.10;;;;;;5060756;28;20187;-76
2022/08/31 03:22:04;;;;;;;8.83;2.37;;;20.30;62.40;;;;;;5084379;28;20209;-75
2022/08/31 03:24:32;;;;;;;7.97;2.50;;;19.90;63.80;;;;;;5072767;28;20207;-74
2022/08/31 03:26:59;;;;;;;8.17;2.53;;;19.80;64.60;;;;;;5064362;28;20521;-75
2022/08/31 03:29:26;;;;;;;9.70;2.83;;;20.90;61.10;;;;;;5070324;28;20265;-75
2022/08/31 03:31:54;;;;;;;6.90;2.50;;;21.90;57.90;;;;;;5069100;28;20182;-79
2022/08/31 03:34:21;;;;;;;7.63;2.50;;;22.30;56.80;;;;;;5062973;28;20654;-75
2022/08/31 03:36:48;;;;;;;7.83;1.90;;;22.90;53.50;;;;;;5053353;28;20313;-75
2022/08/31 03:39:16;;;;;;;5.77;1.27;;;22.90;52.50;;;;;;5069118;28;20210;-76
2022/08/31 03:41:43;;;;;;;5.43;1.70;;;22.90;52.90;;;;;;5065596;28;20223;-75
2022/08/31 03:44:11;;;;;;;9.07;2.47;;;24.00;50.80;;;;;;5062422;28;20218;-76
2022/08/31 03:46:44;;;;;;;4.10;1.50;;;23.70;51.50;;;;;;5069070;28;20325;-77
2022/08/31 03:49:11;;;;;;;4.60;1.33;;;23.30;51.40;;;;;;5063870;28;20195;-78
2022/08/31 03:51:39;;;;;;;5.53;1.70;;;22.10;54.10;;;;;;5067163;28;20202;-78
2022/08/31 03:54:06;;;;;;;4.80;1.70;;;22.30;53.90;;;;;;5069423;28;20186;-77
2022/08/31 03:56:33;;;;;;;6.03;1.30;;;22.80;52.00;;;;;;5059929;28;20203;-77
2022/08/31 03:59:01;;;;;;;4.80;1.60;;;22.80;52.30;;;;;;5066894;28;20545;-76
2022/08/31 04:01:28;;;;;;;7.50;1.80;;;21.90;55.10;;;;;;5069055;28;20191;-75
2022/08/31 04:03:56;;;;;;;7.07;2.10;;;22.00;54.40;;;;;;5065302;28;20207;-74
2022/08/31 04:06:23;;;;;;;4.47;1.90;;;22.30;54.20;;;;;;5066908;28;20191;-76
2022/08/31 04:08:51;;;;;;;9.33;2.23;;;23.30;52.30;;;;;;5067763;28;20271;-76
2022/08/31 04:11:19;;;;;;;6.30;2.03;;;23.50;51.60;;;;;;5067790;28;20191;-79
2022/08/31 04:13:46;;;;;;;9.33;2.50;;;23.70;52.60;;;;;;5063796;28;20675;-76
2022/08/31 04:16:18;;;;;;;6.53;1.90;;;23.70;52.60;;;;;;5062700;28;20184;-75
2022/08/31 04:18:46;;;;;;;13.87;2.53;;;23.60;53.00;;;;;;5060969;28;20216;-76
2022/08/31 04:21:31;;;;;;;8.70;2.13;;;22.70;55.20;;;;;;5068508;28;20195;-76
2022/08/31 04:24:00;;;;;;;5.43;2.10;;;21.50;59.10;;;;;;5069390;28;20746;-76
2022/08/31 04:26:35;;;;;;;9.37;2.50;;;21.20;60.20;;;;;;5067615;28;20180;-77
2022/08/31 04:29:04;;;;;;;7.13;2.30;;;20.70;65.20;;;;;;5062654;28;20175;-79
2022/08/31 04:31:33;;;;;;;9.23;2.60;;;20.40;69.00;;;;;;5063709;28;20175;-74
2022/08/31 04:34:00;;;;;;;9.90;2.07;;;19.90;74.00;;;;;;5069645;28;20213;-78
2022/08/31 04:36:29;;;;;;;7.87;2.13;;;19.30;75.60;;;;;;5078486;28;20205;-75
2022/08/31 04:38:59;;;;;;;12.50;2.63;;;19.40;73.50;;;;;;5068496;28;20188;-76
2022/08/31 04:41:29;;;;;;;6.40;1.87;;;19.20;73.20;;;;;;5068525;28;20265;-74
2022/08/31 04:43:59;;;;;;;6.53;1.70;;;18.50;74.20;;;;;;5069380;28;20898;-76
2022/08/31 04:46:27;;;;;;;7.07;2.20;;;18.30;76.60;;;;;;5069295;28;20219;-78
2022/08/31 04:48:58;;;;;;;8.43;2.30;;;18.10;78.40;;;;;;5077065;28;20191;-75
2022/08/31 04:51:29;;;;;;;8.90;2.60;;;18.20;79.10;;;;;;5069580;28;20187;-75
2022/08/31 04:53:57;;;;;;;8.87;2.30;;;18.30;79.40;;;;;;5067085;28;20260;-75
2022/08/31 04:56:28;;;;;;;6.47;2.03;;;17.90;80.20;;;;;;5061728;28;20183;-75
2022/08/31 04:58:58;;;;;;;7.07;2.67;;;17.90;79.60;;;;;;5054558;28;20190;-74
2022/08/31 05:01:28;;;;;;;4.97;2.00;;;17.70;78.90;;;;;;5056652;28;20186;-77
2022/08/31 05:03:58;;;;;;;10.50;2.57;;;17.60;78.90;;;;;;5061818;28;20340;-77
2022/08/31 05:06:29;;;;;;;11.30;2.67;;;17.60;79.20;;;;;;5064596;28;20195;-74
2022/08/31 05:09:04;;;;;;;9.17;2.63;;;17.60;80.60;;;;;;5063101;28;20213;-75
2022/08/31 05:11:34;;;;;;;6.77;2.53;;;17.70;79.30;;;;;;5059447;28;20205;-75
2022/08/31 05:14:04;;;;;;;8.43;2.90;;;17.40;81.00;;;;;;5067671;28;20262;-72
2022/08/31 05:16:32;;;;;;;6.10;2.30;;;17.30;81.10;;;;;;5058237;28;20180;-75
2022/08/31 05:19:00;;;;;;;9.07;2.40;;;17.40;80.10;;;;;;5067819;28;20167;-74
2022/08/31 05:21:31;;;;;;;10.37;2.90;;;17.50;78.90;;;;;;5072059;28;20210;-75
2022/08/31 05:24:04;;;;;;;8.37;2.70;;;17.80;78.90;;;;;;5063585;28;20210;-74
2022/08/31 05:26:35;;;;;;;11.90;2.87;;;18.00;76.50;;;;;;5064310;28;20203;-75
2022/08/31 05:29:05;;;;;;;11.63;3.00;;;18.00;76.90;;;;;;5069047;28;20190;-75
2022/08/31 05:31:32;;;;;;;7.13;2.30;;;18.20;76.30;;;;;;5069422;28;20236;-72
2022/08/31 05:34:00;;;;;;;9.20;2.83;;;18.00;77.10;;;;;;5070055;28;20644;-75
2022/08/31 05:36:28;;;;;;;10.53;2.70;;;18.20;76.90;;;;;;5069481;28;20278;-75
2022/08/31 05:38:57;;;;;;;10.43;2.90;;;18.00;77.30;;;;;;5060751;28;20184;-75
2022/08/31 05:41:25;;;;;;;10.37;2.60;;;17.90;76.90;;;;;;5060862;28;20309;-75
2022/08/31 05:43:52;;;;;;;11.97;2.43;;;17.70;76.60;;;;;;5064517;28;20210;-76
2022/08/31 05:46:19;;;;;;;9.63;2.17;;;17.50;76.10;;;;;;5065324;28;20184;-75
2022/08/31 05:48:47;;;;;;;6.93;2.27;;;17.50;76.30;;;;;;5070259;28;20270;-76
2022/08/31 05:51:16;;;;;;;7.57;2.43;;;17.60;75.60;;;;;;5067815;28;20195;-75
2022/08/31 05:53:44;;;;;;;6.93;2.30;;;17.40;75.30;;;;;;5062335;28;20216;-76
2022/08/31 05:56:18;;;;;;;13.30;2.23;;;17.40;74.70;;;;;;5068011;28;20184;-76
2022/08/31 05:58:47;;;;;;;8.20;2.23;;;17.40;74.50;;;;;;5062921;28;20657;-76
2022/08/31 06:01:21;;;;;;;7.30;2.20;;;17.60;74.50;;;;;;5067319;28;20338;-76
2022/08/31 06:03:49;;;;;;;12.30;2.67;;;17.50;74.50;;;;;;5064449;28;20221;-75
2022/08/31 06:06:17;;;;;;;10.10;2.23;;;17.50;73.80;;;;;;5055474;28;20186;-76
2022/08/31 06:08:44;;;;;;;13.53;2.97;;;17.50;74.10;;;;;;5051430;28;20171;-76
2022/08/31 06:11:18;;;;;;;8.20;2.30;;;17.70;73.90;;;;;;5052002;28;20566;-75
2022/08/31 06:13:51;;;;;;;10.23;2.50;;;17.70;74.40;;;;;;5051952;28;20192;-75
2022/08/31 06:16:20;;;;;;;10.00;2.43;;;17.50;75.10;;;;;;5052182;28;20251;-75
2022/08/31 06:18:49;;;;;;;9.27;2.50;;;17.60;75.40;;;;;;5051988;28;20176;-76
2022/08/31 06:21:23;;;;;;;8.20;2.73;;;17.50;75.20;;;;;;5052740;28;20258;-76
2022/08/31 06:23:52;;;;;;;8.20;2.20;;;17.30;76.90;;;;;;5051606;28;20578;-74
2022/08/31 06:26:22;;;;;;;11.73;2.77;;;17.40;76.50;;;;;;5053493;28;20182;-75
2022/08/31 06:28:52;;;;;;;12.10;2.80;;;17.40;76.90;;;;;;5055354;28;20292;-75
2022/08/31 06:31:30;;;;;;;16.13;2.87;;;17.50;76.60;;;;;;5062455;28;20222;-76
2022/08/31 06:33:59;;;;;;;10.83;2.77;;;17.40;77.50;;;;;;5059852;28;20180;-75
2022/08/31 06:36:29;;;;;;;7.77;2.33;;;17.50;77.30;;;;;;5067450;28;20258;-74
2022/08/31 06:39:00;;;;;;;12.17;2.90;;;17.50;76.80;;;;;;5057723;28;20195;-76
2022/08/31 06:41:32;;;;;;;8.10;2.33;;;17.60;77.10;;;;;;5053889;28;20220;-75
2022/08/31 06:44:03;;;;;;;16.43;2.83;;;17.60;77.20;;;;;;5059219;28;20205;-74
2022/08/31 06:46:33;;;;;;;9.80;2.77;;;17.30;77.40;;;;;;5069427;28;20202;-76
2022/08/31 06:49:00;;;;;;;10.83;2.57;;;17.20;78.30;;;;;;5059001;28;20172;-75
2022/08/31 06:51:35;;;;;;;13.43;2.80;;;17.20;78.20;;;;;;5054759;28;20172;-76
2022/08/31 06:54:11;;;;;;;14.47;3.37;;;17.30;77.80;;;;;;5054929;28;20270;-76
2022/08/31 06:56:38;;;;;;;11.87;3.07;;;17.30;77.80;;;;;;5057849;28;20214;-76
2022/08/31 06:59:08;;;;;;;7.53;2.20;;;17.30;76.40;;;;;;5057617;28;20641;-77
2022/08/31 07:01:36;;;;;;;9.50;2.10;;;17.20;75.40;;;;;;5057021;28;20182;-75
2022/08/31 07:04:06;;;;;;;7.03;2.20;;;17.10;75.70;;;;;;5061965;28;20218;-75
2022/08/31 07:06:43;;;;;;;10.33;2.20;;;17.10;75.50;;;;;;5056205;28;20711;-75
2022/08/31 07:09:16;;;;;;;10.90;2.50;;;17.20;75.50;;;;;;5056827;28;20240;-76
2022/08/31 07:11:46;;;;;;;9.27;2.10;;;17.10;75.60;;;;;;5082911;28;20184;-75
2022/08/31 07:14:17;;;;;;;7.67;1.83;;;17.20;75.10;;;;;;5062455;28;20316;-76
2022/08/31 07:16:45;;;;;;;7.60;1.53;;;17.00;74.70;;;;;;5079842;28;20183;-76
2022/08/31 07:19:13;;;;;;;6.87;1.70;;;17.20;74.70;;;;;;5064709;28;20349;-76
2022/08/31 07:21:47;;;;;;;5.27;1.80;;;17.30;74.70;;;;;;5064145;28;20189;-76
2022/08/31 07:24:17;;;;;;;5.03;1.50;;;17.20;74.50;;;;;;5063846;28;20199;-76
2022/08/31 07:26:47;;;;;;;6.43;1.73;;;17.10;75.20;;;;;;5060330;28;20244;-76
2022/08/31 07:29:17;;;;;;;5.47;1.30;;;17.10;75.10;;;;;;5060464;28;20175;-76
2022/08/31 07:31:49;;;;;;;3.70;1.33;;;17.00;75.30;;;;;;5070827;28;20285;-76
2022/08/31 07:34:28;;;;;;;5.00;1.40;;;17.00;75.00;;;;;;5060203;28;20645;-76
2022/08/31 07:42:35;;;;;;;5.80;1.40;;;17.00;75.30;;;;;;5069500;28;20190;-76
2022/08/31 07:45:06;;;;;;;7.17;1.40;;;16.90;74.70;;;;;;5077210;28;20208;-76
2022/08/31 07:47:34;;;;;;;7.37;1.83;;;16.90;74.80;;;;;;5061736;28;20258;-76
2022/08/31 07:50:01;;;;;;;4.97;1.90;;;16.90;74.60;;;;;;5077418;28;20187;-77
2022/08/31 07:52:31;;;;;;;6.97;1.77;;;16.80;74.60;;;;;;5053413;28;20610;-76
2022/08/31 07:55:10;;;;;;;3.50;1.57;;;16.80;74.60;;;;;;5074847;28;20182;-76
2022/08/31 07:57:43;;;;;;;5.07;1.90;;;16.80;74.80;;;;;;5071572;28;20204;-76
2022/08/31 08:00:18;;;;;;;4.27;1.77;;;16.80;74.70;;;;;;5077556;28;20190;-77
2022/08/31 08:02:46;;;;;;;5.47;1.80;;;16.70;74.80;;;;;;5070914;28;20190;-76
2022/08/31 08:05:25;;;;;;;6.97;2.27;;;16.70;75.20;;;;;;5060299;28;20222;-77
2022/08/31 08:07:55;;;;;;;6.73;2.00;;;16.70;75.30;;;;;;5073219;28;20194;-78
2022/08/31 08:10:24;;;;;;;7.17;1.80;;;16.70;75.40;;;;;;5063629;28;20656;-77
2022/08/31 08:13:02;;;;;;;7.03;2.27;;;16.70;75.40;;;;;;5066622;28;20190;-76
2022/08/31 08:15:31;;;;;;;6.90;2.23;;;16.80;75.00;;;;;;5065303;28;20174;-77
2022/08/31 08:17:59;;;;;;;9.17;2.10;;;16.70;75.30;;;;;;5051228;28;20194;-77
2022/08/31 08:20:27;;;;;;;8.77;2.10;;;16.70;75.40;;;;;;5061281;28;20188;-77
2022/08/31 08:22:54;;;;;;;10.73;2.40;;;16.70;75.20;;;;;;5072637;28;20727;-77
2022/08/31 08:25:21;;;;;;;7.93;2.23;;;16.70;75.40;;;;;;5052756;28;20677;-77
2022/08/31 08:27:52;;;;;;;10.17;2.13;;;16.70;75.70;;;;;;5066139;28;20194;-77
2022/08/31 08:30:19;;;;;;;8.73;2.17;;;16.60;75.80;;;;;;5057252;28;20190;-77
2022/08/31 08:32:47;;;;;;;8.63;2.40;;;16.60;76.00;;;;;;5054528;28;20225;-77
2022/08/31 08:35:15;;;;;;;7.30;3.10;;;16.60;76.60;;;;;;5074880;28;20206;-77
2022/08/31 08:37:46;;;;;;;8.73;2.60;;;16.60;77.00;;;;;;5054320;28;20195;-77
2022/08/31 08:40:41;;;;;;;9.47;3.07;;;16.60;77.40;;;;;;5052557;28;20231;-77
2022/08/31 08:43:14;;;;;;;11.30;2.70;;;16.50;78.60;;;;;;5059604;28;20182;-77
2022/08/31 08:45:50;;;;;;;11.33;3.30;;;16.40;79.00;;;;;;5058310;28;20248;-77
2022/08/31 08:48:23;;;;;;;10.87;3.00;;;16.40;79.70;;;;;;5052544;28;20652;-77
2022/08/31 08:50:52;;;;;;;16.43;3.20;;;16.40;80.30;;;;;;5056515;28;20191;-77
2022/08/31 08:53:22;;;;;;;10.27;2.93;;;16.30;81.00;;;;;;5052367;28;20305;-77
2022/08/31 08:55:50;;;;;;;14.13;3.20;;;16.30;81.40;;;;;;5060376;28;20174;-77
2022/08/31 08:58:18;;;;;;;17.67;3.07;;;16.20;82.00;;;;;;5055468;28;20179;-77
2022/08/31 09:00:56;;;;;;;14.37;3.50;;;16.20;82.30;;;;;;5062905;28;20176;-78
2022/08/31 09:03:54;;;;;;;16.43;3.83;;;16.00;82.30;;;;;;5066537;28;20171;-78
2022/08/31 09:06:34;;;;;;;14.30;4.13;;;16.10;82.70;;;;;;5050873;28;20215;-77
2022/08/31 09:09:10;;;;;;;17.33;3.90;;;16.10;82.60;;;;;;5060380;28;20647;-76
2022/08/31 09:11:45;;;;;;;15.13;3.37;;;16.20;82.30;;;;;;5070912;28;20190;-76
2022/08/31 09:14:24;;;;;;;12.97;3.20;;;16.10;82.20;;;;;;5052601;28;20269;-76
2022/08/31 09:17:28;;;;;;;12.17;3.20;;;16.10;82.40;;;;;;5068091;28;20175;-77
2022/08/31 09:19:58;;;;;;;17.60;3.90;;;16.10;82.50;;;;;;5068422;28;20181;-76
2022/08/31 09:22:45;;;;;;;10.90;3.37;;;16.10;82.30;;;;;;5056573;28;20180;-76
2022/08/31 09:25:31;;;;;;;23.53;4.23;;;16.00;82.50;;;;;;5052373;28;20228;-76
2022/08/31 09:28:01;;;;;;;17.10;3.77;;;16.00;82.70;;;;;;5052810;28;20668;-76
2022/08/31 09:30:44;;;;;;;13.13;3.60;;;16.00;82.70;;;;;;5057036;28;20178;-76
2022/08/31 09:33:19;;;;;;;19.77;3.90;;;16.00;83.10;;;;;;5068646;28;20193;-76
2022/08/31 09:35:55;;;;;;;19.60;3.90;;;15.90;83.20;;;;;;5054840;28;20190;-77
2022/08/31 09:38:38;;;;;;;15.87;3.63;;;15.90;83.40;;;;;;5063227;28;20205;-77
2022/08/31 09:41:31;;;;;;;14.20;3.53;;;15.90;83.40;;;;;;5051558;28;20228;-76
2022/08/31 09:44:22;;;;;;;20.87;4.23;;;15.90;83.20;;;;;;5059153;28;20301;-77
2022/08/31 09:46:55;;;;;;;15.53;3.23;;;15.80;83.40;;;;;;5060149;28;20253;-77
2022/08/31 09:49:27;;;;;;;17.27;4.23;;;15.80;83.40;;;;;;5051563;28;20173;-76
2022/08/31 09:55:13;;;;;;;19.17;4.37;;;15.80;83.20;;;;;;5053219;28;20715;-76
2022/08/31 09:57:52;;;;;;;19.00;4.13;;;15.80;83.20;;;;;;5052463;28;20556;-76
2022/08/31 10:00:40;;;;;;;15.40;3.20;;;15.80;83.10;;;;;;5061420;28;20172;-78
2022/08/31 10:03:27;;;;;;;20.07;4.10;;;15.70;83.00;;;;;;5053173;28;20248;-76
2022/08/31 10:05:55;;;;;;;13.83;3.23;;;15.70;83.10;;;;;;5054009;28;20192;-75
2022/08/31 10:08:33;;;;;;;23.50;4.47;;;15.70;83.00;;;;;;5067374;28;20183;-76
2022/08/31 10:11:12;;;;;;;15.07;4.23;;;15.70;83.00;;;;;;5066461;28;20215;-75
2022/08/31 10:13:44;;;;;;;18.53;4.37;;;15.70;83.30;;;;;;5060201;28;20187;-75
2022/08/31 10:16:15;;;;;;;23.93;3.73;;;15.60;83.20;;;;;;5055630;28;20191;-76
2022/08/31 10:19:05;;;;;;;20.07;3.90;;;15.60;83.10;;;;;;5062265;28;20182;-77
2022/08/31 10:21:43;;;;;;;26.13;3.80;;;15.60;83.20;;;;;;5055676;28;20178;-77
2022/08/31 10:24:26;;;;;;;19.90;4.37;;;15.60;83.30;;;;;;5065670;28;20212;-76
2022/08/31 10:27:18;;;;;;;19.77;3.73;;;15.50;83.30;;;;;;5067554;28;20183;-76
2022/08/31 10:30:11;;;;;;;18.03;4.20;;;15.50;83.30;;;;;;5055869;28;20192;-76
2022/08/31 10:32:43;;;;;;;25.03;4.50;;;15.50;83.30;;;;;;5055945;28;20298;-76
2022/08/31 10:35:21;;;;;;;16.80;4.03;;;15.60;83.30;;;;;;5055935;28;20181;-77
2022/08/31 10:38:20;;;;;;;18.53;4.27;;;15.60;83.40;;;;;;5055805;28;20203;-76
2022/08/31 10:41:03;;;;;;;19.63;4.67;;;15.50;83.40;;;;;;5054455;28;20318;-75
2022/08/31 10:44:02;;;;;;;16.47;3.67;;;15.50;83.60;;;;;;5055922;28;20185;-76
2022/08/31 10:46:34;;;;;;;16.40;3.57;;;15.60;83.50;;;;;;5055592;28;20638;-76
2022/08/31 10:49:06;;;;;;;21.30;4.23;;;15.60;83.50;;;;;;5059787;28;20194;-76
2022/08/31 10:51:42;;;;;;;21.80;4.37;;;15.60;83.50;;;;;;5075017;28;20187;-76
2022/08/31 10:54:23;;;;;;;21.97;4.43;;;15.60;83.40;;;;;;5064618;28;20663;-76
2022/08/31 10:56:57;;;;;;;22.87;4.27;;;15.60;83.50;;;;;;5054949;28;20193;-76
2022/08/31 11:00:03;;;;;;;13.57;3.67;;;15.50;83.50;;;;;;5056066;28;20188;-76
2022/08/31 11:02:51;;;;;;;21.47;4.43;;;15.60;83.50;;;;;;5056001;28;20198;-76
2022/08/31 11:05:31;;;;;;;24.47;4.43;;;15.50;83.20;;;;;;5056452;28;20230;-76
2022/08/31 11:08:04;;;;;;;22.70;3.70;;;15.50;82.90;;;;;;5054972;28;20283;-76
2022/08/31 11:10:55;;;;;;;19.50;3.40;;;15.50;82.80;;;;;;5054267;28;20652;-76
2022/08/31 11:13:25;;;;;;;21.47;3.67;;;15.60;82.90;;;;;;5062670;28;20191;-77
2022/08/31 11:15:58;;;;;;;16.57;3.67;;;15.50;82.70;;;;;;5054210;28;20266;-76
2022/08/31 11:18:50;;;;;;;22.23;3.93;;;15.40;82.50;;;;;;5053763;28;20563;-76
2022/08/31 11:21:45;;;;;;;18.97;3.70;;;15.40;82.50;;;;;;5062364;28;20270;-76
2022/08/31 11:24:37;;;;;;;16.23;3.70;;;15.40;82.40;;;;;;5081701;28;20290;-76
2022/08/31 11:27:32;;;;;;;22.80;3.20;;;15.40;82.20;;;;;;5054899;28;20263;-76
2022/08/31 11:30:12;;;;;;;14.93;3.00;;;15.40;82.20;;;;;;5057331;28;20180;-76
2022/08/31 11:32:49;;;;;;;19.23;3.50;;;15.40;82.30;;;;;;5058030;28;20180;-76
2022/08/31 11:35:48;;;;;;;10.67;3.53;;;15.40;82.40;;;;;;5055111;28;20188;-76
2022/08/31 11:38:51;;;;;;;23.90;4.17;;;15.40;82.40;;;;;;5054211;28;20626;-76
2022/08/31 11:41:47;;;;;;;20.20;4.43;;;15.40;82.50;;;;;;5063851;28;20570;-76
2022/08/31 11:44:42;;;;;;;18.03;4.00;;;15.40;82.50;;;;;;5059761;28;20235;-76
2022/08/31 11:47:27;;;;;;;21.07;4.47;;;15.50;82.60;;;;;;5050079;28;20199;-77
2022/08/31 11:49:58;;;;;;;15.67;3.53;;;15.50;82.80;;;;;;5066971;28;20178;-76
2022/08/31 11:52:42;;;;;;;15.47;3.80;;;15.50;82.80;;;;;;5053904;28;20192;-75
2022/08/31 11:55:20;;;;;;;17.90;2.87;;;15.60;82.90;;;;;;5054088;28;20541;-76
2022/08/31 11:58:06;;;;;;;14.57;3.00;;;15.50;82.70;;;;;;5056478;28;20182;-76
2022/08/31 12:01:01;;;;;;;16.63;2.97;;;15.50;82.60;;;;;;5063900;28;20546;-76
2022/08/31 12:03:54;;;;;;;17.23;2.90;;;15.60;82.90;;;;;;5065118;28;20184;-76
2022/08/31 12:06:26;;;;;;;15.13;2.90;;;15.60;82.70;;;;;;5056666;28;20593;-76
2022/08/31 12:09:33;;;;;;;21.57;3.37;;;15.60;82.60;;;;;;5054655;28;20214;-76
2022/08/31 12:12:12;;;;;;;16.23;3.07;;;15.60;82.80;;;;;;5059570;28;20209;-76
2022/08/31 12:15:29;;;;;;;14.73;3.50;;;15.60;82.80;;;;;;5057548;28;20771;-76
2022/08/31 12:18:18;;;;;;;12.73;3.00;;;15.60;82.70;;;;;;5052238;28;20194;-76
2022/08/31 12:24:19;;;;;;;15.57;3.63;;;15.50;82.60;;;;;;5053857;28;20554;-76
2022/08/31 12:26:59;;;;;;;17.10;2.90;;;15.50;82.70;;;;;;5053527;28;20530;-76
2022/08/31 12:29:35;;;;;;;14.50;3.17;;;15.40;82.90;;;;;;5063258;28;20177;-76
2022/08/31 12:32:29;;;;;;;15.50;3.03;;;15.30;82.90;;;;;;5067312;28;20181;-76
2022/08/31 12:35:18;;;;;;;16.03;2.97;;;15.30;83.00;;;;;;5062136;28;20268;-76
2022/08/31 12:37:56;;;;;;;18.10;3.40;;;15.30;83.20;;;;;;5052890;28;20164;-76
2022/08/31 12:40:25;;;;;;;19.13;3.20;;;15.30;83.00;;;;;;5053227;28;20232;-76
2022/08/31 12:42:57;;;;;;;16.67;3.40;;;15.30;83.10;;;;;;5055961;28;20190;-76
2022/08/31 12:45:46;;;;;;;11.77;3.07;;;15.30;83.10;;;;;;5064791;28;20222;-76
2022/08/31 12:48:22;;;;;;;8.33;2.77;;;15.30;83.20;;;;;;5066855;28;20207;-76
2022/08/31 12:51:01;;;;;;;10.90;3.10;;;15.40;83.40;;;;;;5062165;28;20187;-76
2022/08/31 12:54:08;;;;;;;21.30;3.30;;;15.40;83.30;;;;;;5053329;28;20180;-76
2022/08/31 12:56:38;;;;;;;17.33;3.13;;;15.40;83.40;;;;;;5059067;28;20183;-76
2022/08/31 12:59:20;;;;;;;15.53;2.70;;;15.50;83.00;;;;;;5068463;28;20170;-76
2022/08/31 13:01:50;;;;;;;19.90;3.73;;;15.50;82.80;;;;;;5057251;28;20198;-76
2022/08/31 13:04:19;;;;;;;22.13;3.40;;;15.40;82.80;;;;;;5062419;28;20204;-76
2022/08/31 13:06:47;;;;;;;12.77;2.57;;;15.50;83.10;;;;;;5053700;28;20263;-76
2022/08/31 13:09:31;;;;;;;18.53;3.23;;;15.50;83.00;;;;;;5053504;28;20215;-76
2022/08/31 13:12:00;;;;;;;12.50;2.83;;;15.50;83.10;;;;;;5059652;28;20179;-74
2022/08/31 13:14:40;;;;;;;12.87;2.83;;;15.50;83.30;;;;;;5052932;28;20659;-76
2022/08/31 13:17:14;;;;;;;12.20;3.60;;;15.50;83.20;;;;;;5052723;28;20250;-76
2022/08/31 13:19:56;;;;;;;13.77;2.87;;;15.50;83.50;;;;;;5053006;28;20189;-77
2022/08/31 13:22:26;;;;;;;14.83;3.17;;;15.50;83.90;;;;;;5052543;28;20255;-79
2022/08/31 13:24:56;;;;;;;20.10;3.27;;;15.50;84.20;;;;;;5056072;28;20214;-85
2022/08/31 13:27:26;;;;;;;20.90;3.60;;;15.50;84.40;;;;;;5062768;28;20536;-86
2022/08/31 13:30:02;;;;;;;15.70;3.53;;;15.50;84.80;;;;;;5060156;28;20179;-84
2022/08/31 13:32:32;;;;;;;17.90;2.93;;;15.50;85.20;;;;;;5055260;28;20175;-93